DLH3731 LPPR-EGPH
Flight info
| Callsign | DLH3731 |
|---|---|
| Flight time | N/A |
| Altitude | 24000 |
| Route | TURON P600 ASDEB/N0489F400 DCT KORUL DCT DOLUR/N0491F410 DCT UNFIT DCT INFEC DCT KISWO DCT AVTIC DCT ANJAK/N0494F430 N38 NOKIN UP16 RIBEL DCT INPIP |
| Aircraft | A359/H-SDE2E3GHIJ3J4J5LM1ORWXY/LB1D1 |
Departure
| Time | 2026-05-03 20:46 |
|---|---|
| Airport | Francisco de Sá Carneiro Airport (LPPR) |
Arrival
| Time | N/A |
|---|---|
| Airport | Edinburgh Airport (EGPH) |
| Time | Latitude | Longitude | Altitude | Speed | Heading |
|---|---|---|---|---|---|
| 2026-05-03 20:19 | 41.23974 | -8.67292 | 259 ft | 0 kts | 108° |
| 2026-05-03 20:38 | 41.23977 | -8.67302 | 261 ft | 2 kts | 108° |
| 2026-05-03 20:39 | 41.23982 | -8.67322 | 260 ft | 2 kts | 108° |
| 2026-05-03 20:39 | 41.23987 | -8.67342 | 263 ft | 2 kts | 108° |
| 2026-05-03 20:39 | 41.23992 | -8.67362 | 264 ft | 2 kts | 108° |
| 2026-05-03 20:39 | 41.23999 | -8.67383 | 263 ft | 3 kts | 141° |
| 2026-05-03 20:40 | 41.24014 | -8.67396 | 262 ft | 3 kts | 163° |
| 2026-05-03 20:40 | 41.24027 | -8.67400 | 258 ft | 0 kts | 192° |
| 2026-05-03 20:43 | 41.23999 | -8.67415 | 262 ft | 6 kts | 205° |
| 2026-05-03 20:43 | 41.23964 | -8.67447 | 261 ft | 7 kts | 221° |
| 2026-05-03 20:43 | 41.23945 | -8.67497 | 261 ft | 7 kts | 246° |
| 2026-05-03 20:43 | 41.23934 | -8.67537 | 261 ft | 0 kts | 254° |
| 2026-05-03 20:44 | 41.23933 | -8.67541 | 261 ft | 1 kts | 255° |
| 2026-05-03 20:44 | 41.23927 | -8.67573 | 261 ft | 6 kts | 256° |
| 2026-05-03 20:44 | 41.23915 | -8.67651 | 259 ft | 7 kts | 259° |
| 2026-05-03 20:44 | 41.23914 | -8.67652 | 259 ft | 0 kts | 259° |
| 2026-05-03 20:45 | 41.23914 | -8.67654 | 259 ft | 1 kts | 259° |
| 2026-05-03 20:45 | 41.23902 | -8.67738 | 259 ft | 17 kts | 259° |
| 2026-05-03 20:45 | 41.23904 | -8.67861 | 260 ft | 16 kts | 302° |
| 2026-05-03 20:46 | 41.24058 | -8.67932 | 254 ft | 43 kts | 348° |
| 2026-05-03 20:46 | 41.24616 | -8.68079 | 248 ft | 118 kts | 349° |
| 2026-05-03 20:46 | 41.25621 | -8.68357 | 382 ft | 166 kts | 347° |
| 2026-05-03 20:46 | 41.26774 | -8.68689 | 1128 ft | 173 kts | 347° |
| 2026-05-03 20:47 | 41.27991 | -8.69020 | 1870 ft | 188 kts | 347° |
| 2026-05-03 20:47 | 41.29354 | -8.69362 | 2394 ft | 207 kts | 348° |
| 2026-05-03 20:47 | 41.30799 | -8.69724 | 2986 ft | 225 kts | 348° |
| 2026-05-03 20:47 | 41.32402 | -8.70133 | 3576 ft | 243 kts | 348° |
| 2026-05-03 20:48 | 41.34090 | -8.70568 | 4396 ft | 249 kts | 347° |
| 2026-05-03 20:48 | 41.35815 | -8.71016 | 5285 ft | 255 kts | 347° |
| 2026-05-03 20:48 | 41.37581 | -8.71452 | 6172 ft | 261 kts | 351° |
| 2026-05-03 20:48 | 41.39411 | -8.71470 | 7098 ft | 267 kts | 3° |
| 2026-05-03 20:49 | 41.41280 | -8.71165 | 7990 ft | 274 kts | 6° |
| 2026-05-03 20:49 | 41.43186 | -8.70776 | 8925 ft | 280 kts | 6° |
| 2026-05-03 20:49 | 41.45134 | -8.70355 | 9880 ft | 286 kts | 6° |
| 2026-05-03 20:49 | 41.47135 | -8.69915 | 10573 ft | 301 kts | 6° |
| 2026-05-03 20:50 | 41.49289 | -8.69439 | 10986 ft | 325 kts | 7° |
| 2026-05-03 20:50 | 41.51599 | -8.68923 | 11441 ft | 345 kts | 7° |
| 2026-05-03 20:50 | 41.54002 | -8.68380 | 12179 ft | 355 kts | 7° |
| 2026-05-03 20:50 | 41.56456 | -8.67823 | 13023 ft | 361 kts | 7° |
| 2026-05-03 20:51 | 41.58956 | -8.67255 | 13871 ft | 368 kts | 7° |
| 2026-05-03 20:51 | 41.61502 | -8.66678 | 14605 ft | 373 kts | 7° |
| 2026-05-03 20:51 | 41.64077 | -8.66094 | 15359 ft | 378 kts | 7° |
| 2026-05-03 20:51 | 41.66694 | -8.65501 | 16131 ft | 384 kts | 7° |
| 2026-05-03 20:52 | 41.69307 | -8.64907 | 16943 ft | 387 kts | 7° |
| 2026-05-03 20:52 | 41.71980 | -8.64300 | 17738 ft | 392 kts | 7° |
| 2026-05-03 20:52 | 41.74688 | -8.63685 | 18498 ft | 397 kts | 7° |
| 2026-05-03 20:52 | 41.77434 | -8.63060 | 19206 ft | 403 kts | 7° |
| 2026-05-03 20:53 | 41.80211 | -8.62428 | 19902 ft | 408 kts | 7° |
| 2026-05-03 20:53 | 41.83027 | -8.61787 | 20609 ft | 413 kts | 7° |
| 2026-05-03 20:53 | 41.85878 | -8.61137 | 21317 ft | 418 kts | 7° |
| 2026-05-03 20:53 | 41.88765 | -8.60477 | 22041 ft | 423 kts | 7° |
| 2026-05-03 20:54 | 41.91684 | -8.59810 | 22756 ft | 427 kts | 7° |
| 2026-05-03 20:54 | 41.97622 | -8.58452 | 24037 ft | 437 kts | 7° |
| 2026-05-03 20:54 | 42.00636 | -8.57761 | 24618 ft | 442 kts | 6° |
| 2026-05-03 20:55 | 42.03690 | -8.57061 | 25176 ft | 446 kts | 6° |
| 2026-05-03 20:55 | 42.06764 | -8.56356 | 25744 ft | 451 kts | 6° |
| 2026-05-03 20:55 | 42.09876 | -8.55700 | 26315 ft | 454 kts | 4° |
| 2026-05-03 20:55 | 42.12987 | -8.55182 | 26890 ft | 457 kts | 3° |
| 2026-05-03 20:56 | 42.16165 | -8.54718 | 27442 ft | 461 kts | 2° |
| 2026-05-03 20:56 | 42.19374 | -8.54263 | 27950 ft | 466 kts | 2° |
| 2026-05-03 20:56 | 42.22617 | -8.53794 | 28506 ft | 470 kts | 2° |
| 2026-05-03 20:56 | 42.25884 | -8.53305 | 28981 ft | 476 kts | 3° |
| 2026-05-03 20:57 | 42.29197 | -8.52793 | 29493 ft | 480 kts | 3° |
| 2026-05-03 20:57 | 42.32518 | -8.52268 | 30070 ft | 483 kts | 3° |
| 2026-05-03 20:57 | 42.35871 | -8.51731 | 30493 ft | 487 kts | 3° |
| 2026-05-03 20:57 | 42.39244 | -8.51188 | 30930 ft | 490 kts | 3° |
| 2026-05-03 20:58 | 42.42640 | -8.50642 | 31362 ft | 493 kts | 3° |
| 2026-05-03 20:58 | 42.46053 | -8.50092 | 31764 ft | 496 kts | 3° |
| 2026-05-03 20:58 | 42.49485 | -8.49409 | 32138 ft | 501 kts | 8° |
| 2026-05-03 20:58 | 42.52859 | -8.48104 | 32504 ft | 508 kts | 18° |
| 2026-05-03 20:59 | 42.56132 | -8.46246 | 32883 ft | 512 kts | 21° |
| 2026-05-03 20:59 | 42.59383 | -8.44232 | 33224 ft | 515 kts | 22° |
| 2026-05-03 20:59 | 42.62632 | -8.42129 | 33568 ft | 518 kts | 23° |
| 2026-05-03 20:59 | 42.65883 | -8.39986 | 33903 ft | 521 kts | 24° |
| 2026-05-03 21:00 | 42.69142 | -8.37826 | 34248 ft | 522 kts | 24° |
| 2026-05-03 21:00 | 42.71307 | -8.36391 | 34518 ft | 521 kts | 23° |
| 2026-05-03 21:00 | 42.75622 | -8.33540 | 35089 ft | 519 kts | 23° |
| 2026-05-03 21:00 | 42.78873 | -8.31400 | 35352 ft | 521 kts | 23° |
| 2026-05-03 21:01 | 42.82144 | -8.29250 | 35683 ft | 521 kts | 23° |
| 2026-05-03 21:01 | 42.85413 | -8.27102 | 36068 ft | 520 kts | 23° |
| 2026-05-03 21:01 | 42.88667 | -8.24963 | 36423 ft | 520 kts | 23° |
| 2026-05-03 21:01 | 42.91929 | -8.22816 | 36731 ft | 520 kts | 23° |
| 2026-05-03 21:02 | 42.95187 | -8.20670 | 37099 ft | 519 kts | 24° |
| 2026-05-03 21:02 | 42.98431 | -8.18529 | 37459 ft | 518 kts | 24° |
| 2026-05-03 21:02 | 43.01673 | -8.16387 | 37787 ft | 517 kts | 24° |
| 2026-05-03 21:02 | 43.04913 | -8.14243 | 38100 ft | 517 kts | 24° |
| 2026-05-03 21:03 | 43.08159 | -8.12093 | 38407 ft | 517 kts | 24° |
| 2026-05-03 21:03 | 43.11398 | -8.09946 | 38714 ft | 517 kts | 24° |
| 2026-05-03 21:03 | 43.14593 | -8.07825 | 38960 ft | 517 kts | 24° |
| 2026-05-03 21:03 | 43.17820 | -8.05681 | 39234 ft | 515 kts | 24° |
| 2026-05-03 21:04 | 43.21043 | -8.03536 | 39473 ft | 514 kts | 24° |
| 2026-05-03 21:04 | 43.24264 | -8.01389 | 39688 ft | 514 kts | 24° |
| 2026-05-03 21:04 | 43.27490 | -7.99238 | 39891 ft | 514 kts | 24° |
| 2026-05-03 21:04 | 43.30709 | -7.97089 | 40018 ft | 515 kts | 24° |
| 2026-05-03 21:05 | 43.37155 | -7.92776 | 40052 ft | 515 kts | 24° |
| 2026-05-03 21:05 | 43.43584 | -7.88465 | 40041 ft | 514 kts | 24° |
| 2026-05-03 21:06 | 43.50013 | -7.84143 | 40038 ft | 514 kts | 24° |
| 2026-05-03 21:06 | 43.56433 | -7.79817 | 40034 ft | 514 kts | 24° |
| 2026-05-03 21:07 | 43.62814 | -7.75507 | 40040 ft | 513 kts | 24° |
| 2026-05-03 21:07 | 43.69225 | -7.71167 | 40037 ft | 513 kts | 24° |
| 2026-05-03 21:08 | 43.75633 | -7.66818 | 40037 ft | 513 kts | 24° |
| 2026-05-03 21:08 | 43.82041 | -7.62460 | 40038 ft | 513 kts | 24° |
| 2026-05-03 21:09 | 43.88439 | -7.58096 | 40029 ft | 513 kts | 24° |
| 2026-05-03 21:09 | 43.94858 | -7.53709 | 40032 ft | 514 kts | 24° |
| 2026-05-03 21:10 | 44.01277 | -7.49311 | 40033 ft | 514 kts | 24° |
| 2026-05-03 21:10 | 44.07681 | -7.44911 | 40027 ft | 513 kts | 24° |
| 2026-05-03 21:11 | 44.14080 | -7.40505 | 40026 ft | 513 kts | 25° |
| 2026-05-03 21:11 | 44.20475 | -7.36092 | 40028 ft | 513 kts | 25° |
| 2026-05-03 21:12 | 44.26871 | -7.31666 | 40021 ft | 513 kts | 25° |
| 2026-05-03 21:12 | 44.33261 | -7.27234 | 40021 ft | 513 kts | 25° |
| 2026-05-03 21:13 | 44.39604 | -7.22824 | 40019 ft | 513 kts | 25° |
| 2026-05-03 21:13 | 44.45990 | -7.18373 | 40018 ft | 513 kts | 25° |
| 2026-05-03 21:14 | 44.52382 | -7.13907 | 40017 ft | 513 kts | 25° |
| 2026-05-03 21:14 | 44.58776 | -7.09428 | 40020 ft | 513 kts | 25° |
| 2026-05-03 21:15 | 44.65165 | -7.04942 | 40013 ft | 513 kts | 25° |
| 2026-05-03 21:15 | 44.71552 | -7.00446 | 40016 ft | 513 kts | 25° |
| 2026-05-03 21:16 | 44.77939 | -6.95939 | 40015 ft | 513 kts | 25° |
| 2026-05-03 21:16 | 44.84443 | -6.91855 | 40011 ft | 511 kts | 15° |
| 2026-05-03 21:17 | 44.90113 | -6.89531 | 40011 ft | 510 kts | 13° |
| 2026-05-03 21:17 | 44.98092 | -6.86575 | 40004 ft | 510 kts | 12° |
| 2026-05-03 21:18 | 45.04970 | -6.84077 | 40008 ft | 510 kts | 13° |
| 2026-05-03 21:18 | 45.11840 | -6.81557 | 40007 ft | 510 kts | 13° |
| 2026-05-03 21:19 | 45.18706 | -6.79016 | 40013 ft | 510 kts | 13° |
| 2026-05-03 21:19 | 45.25582 | -6.76462 | 40012 ft | 510 kts | 13° |
| 2026-05-03 21:20 | 45.32441 | -6.73907 | 40009 ft | 510 kts | 13° |
| 2026-05-03 21:20 | 45.39299 | -6.71347 | 40001 ft | 510 kts | 13° |
| 2026-05-03 21:21 | 45.46152 | -6.68782 | 40000 ft | 509 kts | 13° |
| 2026-05-03 21:21 | 45.53009 | -6.66210 | 39993 ft | 509 kts | 13° |
| 2026-05-03 21:22 | 45.59817 | -6.63650 | 39998 ft | 509 kts | 13° |
| 2026-05-03 21:22 | 45.66674 | -6.61065 | 39996 ft | 510 kts | 13° |
| 2026-05-03 21:23 | 45.73533 | -6.58472 | 39996 ft | 510 kts | 13° |
| 2026-05-03 21:23 | 45.80402 | -6.55869 | 39998 ft | 510 kts | 13° |
| 2026-05-03 21:24 | 45.87260 | -6.53263 | 39996 ft | 510 kts | 13° |
| 2026-05-03 21:24 | 45.94118 | -6.50651 | 39991 ft | 510 kts | 13° |
| 2026-05-03 21:25 | 46.00971 | -6.48034 | 39993 ft | 510 kts | 13° |
| 2026-05-03 21:25 | 46.07840 | -6.45404 | 39990 ft | 510 kts | 13° |
| 2026-05-03 21:26 | 46.14659 | -6.42787 | 39991 ft | 510 kts | 13° |
| 2026-05-03 21:26 | 46.21514 | -6.40149 | 39994 ft | 509 kts | 14° |
| 2026-05-03 21:27 | 46.28368 | -6.37505 | 39988 ft | 510 kts | 13° |
| 2026-05-03 21:27 | 46.35235 | -6.34849 | 39986 ft | 511 kts | 13° |
| 2026-05-03 21:28 | 46.42096 | -6.32188 | 39985 ft | 510 kts | 14° |
| 2026-05-03 21:28 | 46.48955 | -6.29521 | 39979 ft | 510 kts | 14° |
| 2026-05-03 21:29 | 46.54644 | -6.27303 | 39982 ft | 510 kts | 14° |
| 2026-05-03 21:29 | 46.61500 | -6.24624 | 39981 ft | 510 kts | 14° |
| 2026-05-03 21:30 | 46.69467 | -6.21503 | 39983 ft | 510 kts | 14° |
| 2026-05-03 21:30 | 46.75216 | -6.19245 | 39982 ft | 510 kts | 14° |
| 2026-05-03 21:31 | 46.82065 | -6.16547 | 39982 ft | 510 kts | 14° |
| 2026-05-03 21:31 | 46.88911 | -6.13845 | 39977 ft | 509 kts | 14° |
| 2026-05-03 21:32 | 46.95714 | -6.11151 | 39977 ft | 510 kts | 14° |
| 2026-05-03 21:32 | 47.02574 | -6.08428 | 39982 ft | 510 kts | 14° |
| 2026-05-03 21:33 | 47.09430 | -6.05699 | 39972 ft | 510 kts | 14° |
| 2026-05-03 21:33 | 47.16282 | -6.02965 | 39976 ft | 510 kts | 14° |
| 2026-05-03 21:34 | 47.23133 | -6.00224 | 39975 ft | 510 kts | 14° |
| 2026-05-03 21:34 | 47.29977 | -5.97478 | 39969 ft | 509 kts | 14° |
| 2026-05-03 21:35 | 47.36768 | -5.94746 | 39971 ft | 509 kts | 14° |
| 2026-05-03 21:35 | 47.43604 | -5.91989 | 39971 ft | 509 kts | 14° |
| 2026-05-03 21:36 | 47.50432 | -5.89228 | 39966 ft | 508 kts | 14° |
| 2026-05-03 21:36 | 47.57258 | -5.86460 | 39963 ft | 508 kts | 14° |
| 2026-05-03 21:37 | 47.64082 | -5.83685 | 39964 ft | 508 kts | 14° |
| 2026-05-03 21:37 | 47.70904 | -5.80903 | 39963 ft | 508 kts | 14° |
| 2026-05-03 21:38 | 47.77720 | -5.78117 | 39963 ft | 508 kts | 14° |
| 2026-05-03 21:38 | 47.84536 | -5.75322 | 39963 ft | 508 kts | 14° |
| 2026-05-03 21:39 | 47.91302 | -5.72541 | 39964 ft | 507 kts | 14° |
| 2026-05-03 21:39 | 47.98117 | -5.69732 | 39965 ft | 507 kts | 14° |
| 2026-05-03 21:40 | 48.04930 | -5.66916 | 39960 ft | 507 kts | 14° |
| 2026-05-03 21:40 | 48.11733 | -5.64096 | 39961 ft | 507 kts | 14° |
| 2026-05-03 21:41 | 48.18536 | -5.61269 | 39957 ft | 507 kts | 14° |
| 2026-05-03 21:41 | 48.25335 | -5.58436 | 39957 ft | 507 kts | 15° |
| 2026-05-03 21:42 | 48.32137 | -5.55593 | 39961 ft | 507 kts | 15° |
| 2026-05-03 21:42 | 48.38937 | -5.52744 | 39955 ft | 507 kts | 15° |
| 2026-05-03 21:43 | 48.45735 | -5.49887 | 39958 ft | 507 kts | 15° |
| 2026-05-03 21:43 | 48.52493 | -5.47039 | 39963 ft | 507 kts | 15° |
| 2026-05-03 21:44 | 48.59289 | -5.44167 | 39955 ft | 507 kts | 15° |
| 2026-05-03 21:44 | 48.66092 | -5.41285 | 39955 ft | 507 kts | 15° |
| 2026-05-03 21:45 | 48.72885 | -5.38398 | 39952 ft | 507 kts | 15° |
| 2026-05-03 21:45 | 48.79682 | -5.35502 | 39952 ft | 507 kts | 15° |
| 2026-05-03 21:46 | 48.86470 | -5.32601 | 39952 ft | 507 kts | 15° |
| 2026-05-03 21:46 | 48.93216 | -5.29710 | 39952 ft | 507 kts | 15° |
| 2026-05-03 21:47 | 49.00010 | -5.26790 | 39949 ft | 507 kts | 15° |
| 2026-05-03 21:47 | 49.06805 | -5.23862 | 39949 ft | 507 kts | 15° |
| 2026-05-03 21:48 | 49.13602 | -5.20924 | 39949 ft | 507 kts | 15° |
| 2026-05-03 21:48 | 49.20396 | -5.17979 | 39953 ft | 507 kts | 15° |
| 2026-05-03 21:49 | 49.27185 | -5.15028 | 39944 ft | 507 kts | 15° |
| 2026-05-03 21:49 | 49.33966 | -5.12073 | 39944 ft | 507 kts | 15° |
| 2026-05-03 21:50 | 49.40707 | -5.09126 | 39947 ft | 507 kts | 15° |
| 2026-05-03 21:50 | 49.47486 | -5.06154 | 39944 ft | 506 kts | 15° |
| 2026-05-03 21:51 | 49.54285 | -5.03380 | 39941 ft | 505 kts | 12° |
| 2026-05-03 21:51 | 49.61137 | -5.00948 | 39938 ft | 505 kts | 12° |
| 2026-05-03 21:52 | 49.67997 | -4.98506 | 39936 ft | 505 kts | 12° |
| 2026-05-03 21:52 | 49.74834 | -4.96004 | 39936 ft | 504 kts | 13° |
| 2026-05-03 21:53 | 49.81623 | -4.93483 | 39938 ft | 504 kts | 13° |
| 2026-05-03 21:53 | 49.88446 | -4.90936 | 39939 ft | 504 kts | 13° |
| 2026-05-03 21:54 | 49.95270 | -4.88385 | 39928 ft | 504 kts | 13° |
| 2026-05-03 21:54 | 50.02094 | -4.85828 | 39925 ft | 504 kts | 13° |
| 2026-05-03 21:55 | 50.08909 | -4.83267 | 39926 ft | 504 kts | 13° |
| 2026-05-03 21:55 | 50.15728 | -4.80697 | 39928 ft | 504 kts | 13° |
| 2026-05-03 21:56 | 50.22513 | -4.78132 | 39935 ft | 504 kts | 13° |
| 2026-05-03 21:56 | 50.29331 | -4.75548 | 39935 ft | 504 kts | 13° |
| 2026-05-03 21:57 | 50.36143 | -4.72957 | 39938 ft | 503 kts | 13° |
| 2026-05-03 21:57 | 50.42942 | -4.70365 | 39936 ft | 503 kts | 13° |
| 2026-05-03 21:58 | 50.49745 | -4.67763 | 39933 ft | 503 kts | 13° |
| 2026-05-03 21:58 | 50.56551 | -4.65152 | 39934 ft | 503 kts | 13° |
| 2026-05-03 21:59 | 50.63305 | -4.62553 | 39930 ft | 503 kts | 13° |
| 2026-05-03 21:59 | 50.70105 | -4.59929 | 39930 ft | 503 kts | 13° |
| 2026-05-03 22:00 | 50.76915 | -4.57294 | 39933 ft | 504 kts | 13° |
| 2026-05-03 22:00 | 50.83717 | -4.54653 | 39933 ft | 503 kts | 13° |
| 2026-05-03 22:01 | 50.90508 | -4.52009 | 39931 ft | 502 kts | 13° |
| 2026-05-03 22:01 | 50.97300 | -4.49355 | 39930 ft | 502 kts | 13° |
| 2026-05-03 22:02 | 51.04091 | -4.46695 | 39930 ft | 502 kts | 13° |
| 2026-05-03 22:02 | 51.10871 | -4.44031 | 39927 ft | 502 kts | 13° |
| 2026-05-03 22:03 | 51.17604 | -4.41377 | 39925 ft | 502 kts | 13° |
| 2026-05-03 22:03 | 51.24385 | -4.38697 | 39925 ft | 502 kts | 13° |
| 2026-05-03 22:04 | 51.31167 | -4.36008 | 39927 ft | 501 kts | 13° |
| 2026-05-03 22:04 | 51.37916 | -4.33322 | 39927 ft | 500 kts | 13° |
| 2026-05-03 22:05 | 51.44378 | -4.29211 | 39921 ft | 502 kts | 30° |
| 2026-05-03 22:05 | 51.50377 | -4.23427 | 39929 ft | 504 kts | 32° |
| 2026-05-03 22:06 | 51.56279 | -4.17381 | 39927 ft | 502 kts | 31° |
| 2026-05-03 22:06 | 51.62256 | -4.11605 | 39928 ft | 501 kts | 30° |
| 2026-05-03 22:07 | 51.68241 | -4.05989 | 39925 ft | 501 kts | 30° |
| 2026-05-03 22:07 | 51.74291 | -4.00268 | 39928 ft | 501 kts | 30° |
| 2026-05-03 22:08 | 51.80240 | -3.94586 | 39930 ft | 499 kts | 30° |
| 2026-05-03 22:08 | 51.86248 | -3.88813 | 39931 ft | 499 kts | 30° |
| 2026-05-03 22:09 | 51.92198 | -3.83078 | 39936 ft | 501 kts | 30° |
| 2026-05-03 22:10 | 52.01189 | -3.74381 | 39941 ft | 502 kts | 30° |
| 2026-05-03 22:10 | 52.07184 | -3.68558 | 39944 ft | 502 kts | 30° |
| 2026-05-03 22:11 | 52.13190 | -3.62707 | 39944 ft | 503 kts | 30° |
| 2026-05-03 22:11 | 52.19193 | -3.56841 | 39943 ft | 503 kts | 31° |
| 2026-05-03 22:12 | 52.25184 | -3.50966 | 39952 ft | 502 kts | 30° |
| 2026-05-03 22:12 | 52.31168 | -3.45081 | 39949 ft | 501 kts | 31° |
| 2026-05-03 22:13 | 52.37108 | -3.39221 | 39952 ft | 502 kts | 31° |
| 2026-05-03 22:13 | 52.43095 | -3.33295 | 39955 ft | 503 kts | 31° |
| 2026-05-03 22:14 | 52.49080 | -3.27351 | 39960 ft | 502 kts | 31° |
| 2026-05-03 22:14 | 52.55041 | -3.21411 | 39960 ft | 500 kts | 31° |
| 2026-05-03 22:15 | 52.61166 | -3.16063 | 39961 ft | 498 kts | 20° |
| 2026-05-03 22:15 | 52.66741 | -3.13852 | 39965 ft | 496 kts | 4° |
| 2026-05-03 22:16 | 52.74577 | -3.10759 | 39969 ft | 498 kts | 22° |
| 2026-05-03 22:16 | 52.79881 | -3.07006 | 39965 ft | 499 kts | 24° |
| 2026-05-03 22:17 | 52.87210 | -3.01333 | 39962 ft | 500 kts | 25° |
| 2026-05-03 22:17 | 52.92583 | -2.97614 | 39963 ft | 500 kts | 20° |
| 2026-05-03 22:18 | 52.99099 | -2.93529 | 39968 ft | 500 kts | 20° |
| 2026-05-03 22:18 | 53.05588 | -2.89552 | 39964 ft | 499 kts | 19° |
| 2026-05-03 22:19 | 53.12113 | -2.85554 | 39968 ft | 499 kts | 19° |
| 2026-05-03 22:19 | 53.18626 | -2.81528 | 39968 ft | 499 kts | 20° |
| 2026-05-03 22:20 | 53.25136 | -2.77482 | 39974 ft | 499 kts | 19° |
| 2026-05-03 22:20 | 53.31656 | -2.73418 | 39980 ft | 500 kts | 19° |
| 2026-05-03 22:21 | 53.38168 | -2.69347 | 39978 ft | 500 kts | 19° |
| 2026-05-03 22:21 | 53.44690 | -2.65258 | 39978 ft | 500 kts | 20° |
| 2026-05-03 22:22 | 53.51159 | -2.61194 | 39983 ft | 500 kts | 20° |
| 2026-05-03 22:22 | 53.57673 | -2.57080 | 39976 ft | 500 kts | 20° |
| 2026-05-03 22:23 | 53.64173 | -2.52962 | 39982 ft | 501 kts | 20° |
| 2026-05-03 22:23 | 53.70714 | -2.48810 | 39981 ft | 501 kts | 20° |
| 2026-05-03 22:24 | 53.77244 | -2.44642 | 39983 ft | 502 kts | 20° |
| 2026-05-03 22:24 | 53.83783 | -2.40456 | 39990 ft | 502 kts | 20° |
| 2026-05-03 22:25 | 53.90317 | -2.36262 | 39989 ft | 502 kts | 20° |
| 2026-05-03 22:25 | 53.96865 | -2.32333 | 39998 ft | 501 kts | 13° |
| 2026-05-03 22:25 | 54.00294 | -2.31402 | 39995 ft | 499 kts | 2° |
| 2026-05-03 22:26 | 54.03745 | -2.31571 | 39999 ft | 496 kts | 351° |
| 2026-05-03 22:26 | 54.07100 | -2.32893 | 40003 ft | 493 kts | 339° |
| 2026-05-03 22:26 | 54.10313 | -2.34946 | 39994 ft | 493 kts | 337° |
| 2026-05-03 22:27 | 54.16646 | -2.39336 | 39760 ft | 489 kts | 336° |
| 2026-05-03 22:27 | 54.19805 | -2.41540 | 39534 ft | 492 kts | 336° |
| 2026-05-03 22:27 | 54.22981 | -2.43755 | 39317 ft | 493 kts | 336° |
| 2026-05-03 22:27 | 54.26169 | -2.45980 | 39093 ft | 494 kts | 336° |
| 2026-05-03 22:28 | 54.29346 | -2.48200 | 38876 ft | 494 kts | 336° |
| 2026-05-03 22:28 | 54.32526 | -2.50426 | 38653 ft | 493 kts | 336° |
| 2026-05-03 22:28 | 54.35659 | -2.52622 | 38366 ft | 493 kts | 336° |
| 2026-05-03 22:28 | 54.38824 | -2.54842 | 37791 ft | 490 kts | 336° |
| 2026-05-03 22:29 | 54.41976 | -2.57060 | 37110 ft | 488 kts | 336° |
| 2026-05-03 22:29 | 54.45112 | -2.59269 | 36423 ft | 487 kts | 336° |
| 2026-05-03 22:29 | 54.48245 | -2.61479 | 35721 ft | 486 kts | 336° |
| 2026-05-03 22:29 | 54.51371 | -2.63688 | 34993 ft | 486 kts | 336° |
| 2026-05-03 22:30 | 54.54502 | -2.65905 | 34199 ft | 487 kts | 336° |
| 2026-05-03 22:30 | 54.57642 | -2.68132 | 33257 ft | 488 kts | 336° |
| 2026-05-03 22:30 | 54.60789 | -2.70367 | 32370 ft | 487 kts | 336° |
| 2026-05-03 22:30 | 54.63916 | -2.72592 | 31478 ft | 486 kts | 336° |
| 2026-05-03 22:31 | 54.67042 | -2.74820 | 30657 ft | 484 kts | 336° |
| 2026-05-03 22:31 | 54.70136 | -2.77028 | 29995 ft | 479 kts | 337° |
| 2026-05-03 22:31 | 54.73203 | -2.79222 | 29273 ft | 472 kts | 338° |
| 2026-05-03 22:31 | 54.76211 | -2.81376 | 28654 ft | 465 kts | 338° |
| 2026-05-03 22:32 | 54.79182 | -2.83507 | 28012 ft | 458 kts | 338° |
| 2026-05-03 22:32 | 54.82075 | -2.85584 | 27401 ft | 453 kts | 337° |
| 2026-05-03 22:32 | 54.84965 | -2.87663 | 26783 ft | 447 kts | 337° |
| 2026-05-03 22:32 | 54.87824 | -2.89723 | 26151 ft | 443 kts | 337° |
| 2026-05-03 22:33 | 54.90655 | -2.91761 | 25544 ft | 438 kts | 337° |
| 2026-05-03 22:33 | 54.93454 | -2.93785 | 24947 ft | 434 kts | 337° |
| 2026-05-03 22:33 | 54.96226 | -2.95794 | 24334 ft | 430 kts | 336° |
| 2026-05-03 22:33 | 54.98979 | -2.97791 | 23724 ft | 427 kts | 336° |
| 2026-05-03 22:34 | 55.01711 | -2.99775 | 23018 ft | 424 kts | 336° |
| 2026-05-03 22:34 | 55.04416 | -3.01744 | 22389 ft | 419 kts | 336° |
| 2026-05-03 22:34 | 55.07096 | -3.03696 | 21779 ft | 414 kts | 336° |
| 2026-05-03 22:34 | 55.09744 | -3.05628 | 21162 ft | 410 kts | 336° |
| 2026-05-03 22:35 | 55.12371 | -3.07548 | 20529 ft | 407 kts | 336° |
| 2026-05-03 22:35 | 55.14973 | -3.09451 | 19948 ft | 403 kts | 336° |
| 2026-05-03 22:35 | 55.17558 | -3.11348 | 19322 ft | 404 kts | 336° |
| 2026-05-03 22:35 | 55.20161 | -3.13257 | 18695 ft | 406 kts | 336° |
| 2026-05-03 22:36 | 55.22754 | -3.15161 | 18209 ft | 400 kts | 336° |
| 2026-05-03 22:36 | 55.25282 | -3.17018 | 17913 ft | 386 kts | 336° |
| 2026-05-03 22:36 | 55.27717 | -3.18809 | 17627 ft | 373 kts | 336° |
| 2026-05-03 22:36 | 55.30161 | -3.20100 | 17320 ft | 363 kts | 352° |
| 2026-05-03 22:37 | 55.32616 | -3.20086 | 17089 ft | 352 kts | 3° |
| 2026-05-03 22:37 | 55.35017 | -3.19707 | 16865 ft | 341 kts | 4° |
| 2026-05-03 22:37 | 55.37342 | -3.19313 | 16649 ft | 330 kts | 4° |
| 2026-05-03 22:37 | 55.39599 | -3.18939 | 16345 ft | 322 kts | 4° |
| 2026-05-03 22:38 | 55.41817 | -3.18580 | 15937 ft | 319 kts | 4° |
| 2026-05-03 22:38 | 55.44017 | -3.18229 | 15508 ft | 316 kts | 4° |
| 2026-05-03 22:38 | 55.46198 | -3.17884 | 15092 ft | 313 kts | 4° |
| 2026-05-03 22:38 | 55.48363 | -3.17542 | 14684 ft | 311 kts | 4° |
| 2026-05-03 22:39 | 55.50516 | -3.17203 | 14230 ft | 310 kts | 4° |
| 2026-05-03 22:39 | 55.52658 | -3.16867 | 13793 ft | 308 kts | 4° |
| 2026-05-03 22:39 | 55.54787 | -3.16532 | 13326 ft | 306 kts | 4° |
| 2026-05-03 22:39 | 55.56905 | -3.16198 | 12845 ft | 304 kts | 4° |
| 2026-05-03 22:40 | 55.59006 | -3.15868 | 12380 ft | 303 kts | 4° |
| 2026-05-03 22:40 | 55.61074 | -3.15542 | 11941 ft | 301 kts | 4° |
| 2026-05-03 22:40 | 55.63149 | -3.15215 | 11490 ft | 299 kts | 4° |
| 2026-05-03 22:40 | 55.65219 | -3.14888 | 11035 ft | 297 kts | 4° |
| 2026-05-03 22:41 | 55.67279 | -3.14562 | 10584 ft | 296 kts | 4° |
| 2026-05-03 22:41 | 55.69320 | -3.14365 | 10238 ft | 290 kts | 356° |
| 2026-05-03 22:41 | 55.71178 | -3.15422 | 10014 ft | 278 kts | 324° |
| 2026-05-03 22:41 | 55.72381 | -3.17967 | 9720 ft | 269 kts | 293° |
| 2026-05-03 22:42 | 55.72963 | -3.21096 | 9341 ft | 266 kts | 285° |
| 2026-05-03 22:42 | 55.73434 | -3.24264 | 8946 ft | 264 kts | 285° |
| 2026-05-03 22:42 | 55.73905 | -3.27412 | 8545 ft | 262 kts | 285° |
| 2026-05-03 22:42 | 55.74381 | -3.30524 | 8211 ft | 259 kts | 285° |
| 2026-05-03 22:43 | 55.74856 | -3.33599 | 7874 ft | 262 kts | 286° |
| 2026-05-03 22:43 | 55.75364 | -3.36849 | 7926 ft | 271 kts | 286° |
| 2026-05-03 22:43 | 55.75855 | -3.40001 | 7756 ft | 260 kts | 287° |
| 2026-05-03 22:43 | 55.76334 | -3.43074 | 7397 ft | 257 kts | 287° |
| 2026-05-03 22:44 | 55.76810 | -3.46121 | 7005 ft | 256 kts | 287° |
| 2026-05-03 22:44 | 55.77285 | -3.49166 | 6619 ft | 255 kts | 287° |
| 2026-05-03 22:44 | 55.77758 | -3.52199 | 6228 ft | 254 kts | 287° |
| 2026-05-03 22:44 | 55.78225 | -3.55183 | 5888 ft | 251 kts | 287° |
| 2026-05-03 22:45 | 55.78914 | -3.57970 | 5553 ft | 245 kts | 305° |
| 2026-05-03 22:45 | 55.79917 | -3.60317 | 5398 ft | 232 kts | 310° |
| 2026-05-03 22:45 | 55.80914 | -3.62454 | 5217 ft | 217 kts | 311° |
| 2026-05-03 22:45 | 55.81868 | -3.64440 | 5046 ft | 205 kts | 312° |
| 2026-05-03 22:46 | 55.82793 | -3.66285 | 4884 ft | 194 kts | 315° |
| 2026-05-03 22:46 | 55.83978 | -3.67134 | 4651 ft | 184 kts | 2° |
| 2026-05-03 22:46 | 55.85092 | -3.66218 | 4470 ft | 176 kts | 41° |
| 2026-05-03 22:46 | 55.85781 | -3.64496 | 4326 ft | 168 kts | 62° |
| 2026-05-03 22:47 | 55.86315 | -3.62732 | 4186 ft | 157 kts | 57° |
| 2026-05-03 22:47 | 55.86859 | -3.61124 | 4011 ft | 145 kts | 56° |
| 2026-05-03 22:47 | 55.87374 | -3.59637 | 4001 ft | 141 kts | 56° |
| 2026-05-03 22:47 | 55.87894 | -3.58141 | 3999 ft | 143 kts | 56° |
| 2026-05-03 22:48 | 55.88414 | -3.56630 | 3999 ft | 143 kts | 56° |
| 2026-05-03 22:48 | 55.88932 | -3.55110 | 3998 ft | 143 kts | 56° |
| 2026-05-03 22:48 | 55.89442 | -3.53608 | 4000 ft | 143 kts | 56° |
| 2026-05-03 22:48 | 55.89967 | -3.52064 | 3947 ft | 145 kts | 56° |
| 2026-05-03 22:49 | 55.90498 | -3.50501 | 3573 ft | 151 kts | 56° |
| 2026-05-03 22:49 | 55.91058 | -3.48854 | 3007 ft | 165 kts | 57° |
| 2026-05-03 22:49 | 55.91674 | -3.47042 | 2426 ft | 175 kts | 57° |
| 2026-05-03 22:49 | 55.92300 | -3.45194 | 1886 ft | 176 kts | 58° |
| 2026-05-03 22:50 | 55.92956 | -3.43285 | 1134 ft | 185 kts | 58° |
| 2026-05-03 22:50 | 55.93634 | -3.41323 | 546 ft | 184 kts | 59° |
| 2026-05-03 22:50 | 55.94333 | -3.39223 | 2513 ft | 422 kts | 58° |
| 2026-05-03 22:50 | 55.94610 | -3.38373 | 2770 ft | 35 kts | 45° |